sensor_id;sensor_type;location;lat;lon;timestamp;pressure;altitude;pressure_sealevel;temperature;humidity
45763;BME280;37512;52.408;13.356;2023-01-05T00:02:24;100251.28;;;8.99;100.00
45763;BME280;37512;52.408;13.356;2023-01-05T00:06:26;100251.63;;;8.98;100.00
45763;BME280;37512;52.408;13.356;2023-01-05T00:10:27;100254.47;;;8.82;100.00
45763;BME280;37512;52.408;13.356;2023-01-05T00:14:47;100267.44;;;8.78;100.00
45763;BME280;37512;52.408;13.356;2023-01-05T00:19:10;100260.31;;;8.96;100.00
45763;BME280;37512;52.408;13.356;2023-01-05T00:23:30;100256.75;;;8.76;100.00
45763;BME280;37512;52.408;13.356;2023-01-05T00:27:32;100244.94;;;8.79;100.00
45763;BME280;37512;52.408;13.356;2023-01-05T00:31:34;100267.03;;;8.76;100.00
45763;BME280;37512;52.408;13.356;2023-01-05T00:35:35;100263.22;;;8.84;100.00
45763;BME280;37512;52.408;13.356;2023-01-05T00:39:39;100263.81;;;8.74;100.00
45763;BME280;37512;52.408;13.356;2023-01-05T00:43:40;100262.00;;;8.82;100.00
45763;BME280;37512;52.408;13.356;2023-01-05T00:47:42;100257.13;;;8.94;100.00
45763;BME280;37512;52.408;13.356;2023-01-05T00:51:43;100254.09;;;9.03;100.00
45763;BME280;37512;52.408;13.356;2023-01-05T00:55:54;100253.09;;;9.11;100.00
45763;BME280;37512;52.408;13.356;2023-01-05T00:59:56;100255.53;;;9.16;100.00
45763;BME280;37512;52.408;13.356;2023-01-05T01:03:57;100245.22;;;9.13;100.00
45763;BME280;37512;52.408;13.356;2023-01-05T01:07:59;100249.81;;;9.06;100.00
45763;BME280;37512;52.408;13.356;2023-01-05T01:12:00;100252.06;;;9.19;100.00
45763;BME280;37512;52.408;13.356;2023-01-05T01:16:10;100250.44;;;9.18;100.00
45763;BME280;37512;52.408;13.356;2023-01-05T01:20:12;100244.13;;;9.18;100.00
45763;BME280;37512;52.408;13.356;2023-01-05T01:24:16;100259.81;;;9.10;100.00
45763;BME280;37512;52.408;13.356;2023-01-05T01:28:17;100258.56;;;9.08;100.00
45763;BME280;37512;52.408;13.356;2023-01-05T01:32:19;100255.28;;;9.21;100.00
45763;BME280;37512;52.408;13.356;2023-01-05T01:36:24;100255.50;;;9.13;100.00
45763;BME280;37512;52.408;13.356;2023-01-05T01:40:26;100255.06;;;9.11;100.00
45763;BME280;37512;52.408;13.356;2023-01-05T01:53:04;100239.56;;;9.29;100.00
45763;BME280;37512;52.408;13.356;2023-01-05T01:57:09;100258.97;;;9.10;100.00
45763;BME280;37512;52.408;13.356;2023-01-05T02:01:12;100250.44;;;9.18;100.00
45763;BME280;37512;52.408;13.356;2023-01-05T02:05:14;100235.06;;;9.21;100.00
45763;BME280;37512;52.408;13.356;2023-01-05T02:09:16;100241.78;;;9.20;100.00
45763;BME280;37512;52.408;13.356;2023-01-05T02:18:13;100232.41;;;9.28;100.00
45763;BME280;37512;52.408;13.356;2023-01-05T02:31:18;100233.78;;;9.15;100.00
45763;BME280;37512;52.408;13.356;2023-01-05T02:35:36;100228.69;;;9.17;100.00
45763;BME280;37512;52.408;13.356;2023-01-05T02:39:56;100225.66;;;9.26;100.00
45763;BME280;37512;52.408;13.356;2023-01-05T02:43:59;100203.81;;;9.20;100.00
45763;BME280;37512;52.408;13.356;2023-01-05T02:48:01;100222.22;;;9.32;100.00
45763;BME280;37512;52.408;13.356;2023-01-05T02:52:03;100218.28;;;9.33;100.00
45763;BME280;37512;52.408;13.356;2023-01-05T02:56:18;100218.09;;;9.23;100.00
45763;BME280;37512;52.408;13.356;2023-01-05T03:00:26;100224.38;;;9.42;100.00
45763;BME280;37512;52.408;13.356;2023-01-05T03:08:37;100217.97;;;9.15;100.00
45763;BME280;37512;52.408;13.356;2023-01-05T03:12:40;100227.97;;;9.24;100.00
45763;BME280;37512;52.408;13.356;2023-01-05T03:17:02;100241.56;;;9.09;100.00
45763;BME280;37512;52.408;13.356;2023-01-05T03:21:06;100227.50;;;9.18;100.00
45763;BME280;37512;52.408;13.356;2023-01-05T03:25:09;100220.28;;;9.13;100.00
45763;BME280;37512;52.408;13.356;2023-01-05T03:29:30;100227.72;;;9.29;100.00
45763;BME280;37512;52.408;13.356;2023-01-05T03:34:07;100216.97;;;9.27;100.00
45763;BME280;37512;52.408;13.356;2023-01-05T03:38:39;100229.25;;;9.26;100.00
45763;BME280;37512;52.408;13.356;2023-01-05T03:42:43;100227.28;;;9.27;100.00
45763;BME280;37512;52.408;13.356;2023-01-05T03:46:45;100224.97;;;9.32;100.00
45763;BME280;37512;52.408;13.356;2023-01-05T03:50:47;100231.81;;;9.38;100.00
45763;BME280;37512;52.408;13.356;2023-01-05T03:54:49;100233.06;;;9.41;100.00
45763;BME280;37512;52.408;13.356;2023-01-05T03:58:50;100231.63;;;9.28;100.00
45763;BME280;37512;52.408;13.356;2023-01-05T04:02:51;100232.50;;;9.32;100.00
45763;BME280;37512;52.408;13.356;2023-01-05T04:06:53;100243.34;;;9.40;100.00
45763;BME280;37512;52.408;13.356;2023-01-05T04:10:55;100237.97;;;9.28;100.00
45763;BME280;37512;52.408;13.356;2023-01-05T04:14:57;100266.47;;;9.29;100.00
45763;BME280;37512;52.408;13.356;2023-01-05T04:18:58;100259.28;;;9.24;100.00
45763;BME280;37512;52.408;13.356;2023-01-05T04:23:00;100252.63;;;9.29;100.00
45763;BME280;37512;52.408;13.356;2023-01-05T04:27:01;100247.31;;;9.20;100.00
45763;BME280;37512;52.408;13.356;2023-01-05T04:31:03;100254.84;;;9.19;100.00
45763;BME280;37512;52.408;13.356;2023-01-05T04:35:05;100253.16;;;9.15;100.00
45763;BME280;37512;52.408;13.356;2023-01-05T04:39:11;100288.13;;;9.04;100.00
45763;BME280;37512;52.408;13.356;2023-01-05T04:43:13;100280.84;;;8.95;100.00
45763;BME280;37512;52.408;13.356;2023-01-05T04:47:14;100314.63;;;8.66;100.00
45763;BME280;37512;52.408;13.356;2023-01-05T04:51:16;100314.94;;;8.45;100.00
45763;BME280;37512;52.408;13.356;2023-01-05T04:55:17;100315.47;;;8.50;100.00
45763;BME280;37512;52.408;13.356;2023-01-05T04:59:19;100315.91;;;8.36;100.00
45763;BME280;37512;52.408;13.356;2023-01-05T05:03:20;100332.88;;;8.51;100.00
45763;BME280;37512;52.408;13.356;2023-01-05T05:07:22;100327.88;;;8.41;100.00
45763;BME280;37512;52.408;13.356;2023-01-05T05:11:24;100332.50;;;8.21;100.00
45763;BME280;37512;52.408;13.356;2023-01-05T05:15:25;100331.59;;;8.32;100.00
45763;BME280;37512;52.408;13.356;2023-01-05T05:19:27;100338.59;;;8.42;100.00
45763;BME280;37512;52.408;13.356;2023-01-05T05:23:28;100345.97;;;8.38;100.00
45763;BME280;37512;52.408;13.356;2023-01-05T05:27:30;100326.53;;;8.50;100.00
45763;BME280;37512;52.408;13.356;2023-01-05T05:31:31;100321.53;;;8.56;100.00
45763;BME280;37512;52.408;13.356;2023-01-05T05:35:33;100320.59;;;8.68;100.00
45763;BME280;37512;52.408;13.356;2023-01-05T05:39:34;100323.28;;;8.64;100.00
45763;BME280;37512;52.408;13.356;2023-01-05T05:43:36;100328.25;;;8.74;100.00
45763;BME280;37512;52.408;13.356;2023-01-05T05:47:37;100329.78;;;8.72;100.00
45763;BME280;37512;52.408;13.356;2023-01-05T05:51:39;100311.31;;;8.76;100.00
45763;BME280;37512;52.408;13.356;2023-01-05T05:55:40;100319.41;;;8.69;100.00
45763;BME280;37512;52.408;13.356;2023-01-05T05:59:42;100323.66;;;8.63;100.00
45763;BME280;37512;52.408;13.356;2023-01-05T06:03:44;100323.38;;;8.68;100.00
45763;BME280;37512;52.408;13.356;2023-01-05T06:07:45;100338.09;;;8.72;100.00
45763;BME280;37512;52.408;13.356;2023-01-05T06:11:47;100340.72;;;8.84;100.00
45763;BME280;37512;52.408;13.356;2023-01-05T06:15:48;100337.88;;;8.81;100.00
45763;BME280;37512;52.408;13.356;2023-01-05T06:19:50;100352.16;;;8.83;100.00
45763;BME280;37512;52.408;13.356;2023-01-05T06:23:51;100370.56;;;8.75;100.00
45763;BME280;37512;52.408;13.356;2023-01-05T06:27:53;100394.25;;;8.41;100.00
45763;BME280;37512;52.408;13.356;2023-01-05T06:31:54;100375.78;;;8.45;100.00
45763;BME280;37512;52.408;13.356;2023-01-05T06:35:56;100367.56;;;8.48;100.00
45763;BME280;37512;52.408;13.356;2023-01-05T06:39:59;100391.59;;;8.44;100.00
45763;BME280;37512;52.408;13.356;2023-01-05T06:44:01;100393.34;;;8.52;100.00
45763;BME280;37512;52.408;13.356;2023-01-05T06:48:03;100399.31;;;8.23;100.00
45763;BME280;37512;52.408;13.356;2023-01-05T06:52:04;100404.66;;;8.15;100.00
45763;BME280;37512;52.408;13.356;2023-01-05T06:56:12;100415.19;;;8.10;100.00
45763;BME280;37512;52.408;13.356;2023-01-05T07:00:14;100419.22;;;8.12;100.00
45763;BME280;37512;52.408;13.356;2023-01-05T07:04:16;100431.88;;;8.13;100.00
45763;BME280;37512;52.408;13.356;2023-01-05T07:08:18;100436.88;;;8.24;100.00
45763;BME280;37512;52.408;13.356;2023-01-05T07:12:20;100444.44;;;8.11;100.00
45763;BME280;37512;52.408;13.356;2023-01-05T07:16:21;100443.03;;;8.17;100.00
45763;BME280;37512;52.408;13.356;2023-01-05T07:20:23;100449.31;;;8.02;100.00
45763;BME280;37512;52.408;13.356;2023-01-05T07:24:24;100446.94;;;8.16;100.00
45763;BME280;37512;52.408;13.356;2023-01-05T07:28:26;100446.75;;;8.25;100.00
45763;BME280;37512;52.408;13.356;2023-01-05T07:32:27;100446.03;;;8.28;100.00
45763;BME280;37512;52.408;13.356;2023-01-05T07:36:29;100448.13;;;8.31;100.00
45763;BME280;37512;52.408;13.356;2023-01-05T07:40:30;100453.19;;;8.29;100.00
45763;BME280;37512;52.408;13.356;2023-01-05T07:44:32;100448.38;;;8.26;100.00
45763;BME280;37512;52.408;13.356;2023-01-05T07:48:33;100459.97;;;8.31;100.00
45763;BME280;37512;52.408;13.356;2023-01-05T07:52:34;100465.94;;;8.17;100.00
45763;BME280;37512;52.408;13.356;2023-01-05T07:56:36;100465.84;;;8.14;100.00
45763;BME280;37512;52.408;13.356;2023-01-05T08:00:37;100490.34;;;8.00;100.00
45763;BME280;37512;52.408;13.356;2023-01-05T08:04:39;100491.50;;;7.99;100.00
45763;BME280;37512;52.408;13.356;2023-01-05T08:08:41;100499.88;;;8.02;100.00
45763;BME280;37512;52.408;13.356;2023-01-05T08:12:42;100493.66;;;8.05;100.00
45763;BME280;37512;52.408;13.356;2023-01-05T08:17:02;100501.59;;;8.07;100.00
45763;BME280;37512;52.408;13.356;2023-01-05T08:21:04;100512.81;;;8.14;100.00
45763;BME280;37512;52.408;13.356;2023-01-05T08:25:06;100525.25;;;8.20;100.00
45763;BME280;37512;52.408;13.356;2023-01-05T08:29:08;100532.44;;;8.37;100.00
45763;BME280;37512;52.408;13.356;2023-01-05T08:33:09;100536.34;;;8.36;100.00
45763;BME280;37512;52.408;13.356;2023-01-05T08:37:11;100540.06;;;8.28;100.00
45763;BME280;37512;52.408;13.356;2023-01-05T08:41:15;100541.34;;;8.30;100.00
45763;BME280;37512;52.408;13.356;2023-01-05T08:45:17;100557.63;;;8.20;100.00
45763;BME280;37512;52.408;13.356;2023-01-05T08:49:18;100549.94;;;8.41;100.00
45763;BME280;37512;52.408;13.356;2023-01-05T08:53:20;100550.31;;;8.27;100.00
45763;BME280;37512;52.408;13.356;2023-01-05T08:57:21;100551.56;;;8.42;100.00
45763;BME280;37512;52.408;13.356;2023-01-05T09:01:23;100561.22;;;8.36;100.00
45763;BME280;37512;52.408;13.356;2023-01-05T09:05:25;100568.53;;;8.28;100.00
45763;BME280;37512;52.408;13.356;2023-01-05T09:09:26;100563.81;;;8.29;100.00
45763;BME280;37512;52.408;13.356;2023-01-05T09:13:27;100572.25;;;8.64;100.00
45763;BME280;37512;52.408;13.356;2023-01-05T09:17:30;100592.28;;;8.89;100.00
45763;BME280;37512;52.408;13.356;2023-01-05T09:21:32;100593.91;;;9.06;100.00
45763;BME280;37512;52.408;13.356;2023-01-05T09:25:34;100580.06;;;9.06;100.00
45763;BME280;37512;52.408;13.356;2023-01-05T09:29:35;100583.88;;;9.33;100.00
45763;BME280;37512;52.408;13.356;2023-01-05T09:33:38;100606.94;;;9.06;100.00
45763;BME280;37512;52.408;13.356;2023-01-05T09:37:40;100602.38;;;9.29;100.00
45763;BME280;37512;52.408;13.356;2023-01-05T09:41:51;100619.72;;;9.10;100.00
45763;BME280;37512;52.408;13.356;2023-01-05T09:45:54;100609.75;;;9.57;100.00
45763;BME280;37512;52.408;13.356;2023-01-05T09:49:57;100621.59;;;9.73;100.00
45763;BME280;37512;52.408;13.356;2023-01-05T09:53:59;100632.38;;;9.27;100.00
45763;BME280;37512;52.408;13.356;2023-01-05T09:58:09;100642.22;;;9.40;100.00
45763;BME280;37512;52.408;13.356;2023-01-05T10:06:45;100651.94;;;9.03;100.00
45763;BME280;37512;52.408;13.356;2023-01-05T10:10:55;100656.63;;;8.70;100.00
45763;BME280;37512;52.408;13.356;2023-01-05T10:15:19;100655.22;;;8.76;100.00
45763;BME280;37512;52.408;13.356;2023-01-05T10:19:21;100658.22;;;8.55;100.00
45763;BME280;37512;52.408;13.356;2023-01-05T10:23:33;100664.28;;;8.61;100.00
45763;BME280;37512;52.408;13.356;2023-01-05T10:27:48;100664.69;;;8.91;100.00
45763;BME280;37512;52.408;13.356;2023-01-05T10:36:07;100677.06;;;8.66;100.00
45763;BME280;37512;52.408;13.356;2023-01-05T10:40:37;100684.34;;;8.86;100.00
45763;BME280;37512;52.408;13.356;2023-01-05T10:44:47;100666.59;;;8.87;100.00
45763;BME280;37512;52.408;13.356;2023-01-05T10:48:49;100687.41;;;8.69;100.00
45763;BME280;37512;52.408;13.356;2023-01-05T10:52:52;100698.28;;;8.62;100.00
45763;BME280;37512;52.408;13.356;2023-01-05T10:56:54;100698.88;;;8.55;100.00
45763;BME280;37512;52.408;13.356;2023-01-05T11:01:05;100686.09;;;8.50;100.00
45763;BME280;37512;52.408;13.356;2023-01-05T11:13:32;100702.88;;;8.70;100.00
45763;BME280;37512;52.408;13.356;2023-01-05T11:17:37;100705.03;;;8.76;100.00
45763;BME280;37512;52.408;13.356;2023-01-05T11:21:40;100711.31;;;8.61;100.00
45763;BME280;37512;52.408;13.356;2023-01-05T11:25:44;100707.75;;;8.61;100.00
45763;BME280;37512;52.408;13.356;2023-01-05T11:38:29;100735.63;;;8.68;100.00
45763;BME280;37512;52.408;13.356;2023-01-05T11:42:32;100731.06;;;8.75;100.00
45763;BME280;37512;52.408;13.356;2023-01-05T11:46:40;100742.25;;;8.79;100.00
45763;BME280;37512;52.408;13.356;2023-01-05T11:50:48;100756.03;;;8.91;100.00
45763;BME280;37512;52.408;13.356;2023-01-05T11:54:50;100760.47;;;8.80;100.00
45763;BME280;37512;52.408;13.356;2023-01-05T11:58:53;100778.19;;;8.91;100.00
45763;BME280;37512;52.408;13.356;2023-01-05T12:07:24;100770.19;;;8.74;100.00
45763;BME280;37512;52.408;13.356;2023-01-05T12:11:41;100791.13;;;8.87;100.00
45763;BME280;37512;52.408;13.356;2023-01-05T12:20:18;100812.31;;;8.95;100.00
45763;BME280;37512;52.408;13.356;2023-01-05T12:24:37;100811.91;;;8.69;100.00
45763;BME280;37512;52.408;13.356;2023-01-05T12:50:57;100854.25;;;8.69;100.00
45763;BME280;37512;52.408;13.356;2023-01-05T12:55:27;100877.06;;;8.78;100.00
45763;BME280;37512;52.408;13.356;2023-01-05T12:59:38;100849.66;;;9.02;100.00
45763;BME280;37512;52.408;13.356;2023-01-05T13:04:04;100859.41;;;8.83;100.00
45763;BME280;37512;52.408;13.356;2023-01-05T13:12:24;100902.44;;;8.68;100.00
45763;BME280;37512;52.408;13.356;2023-01-05T13:16:29;100885.63;;;8.61;100.00
45763;BME280;37512;52.408;13.356;2023-01-05T13:20:41;100891.75;;;8.42;100.00
45763;BME280;37512;52.408;13.356;2023-01-05T13:28:57;100912.84;;;8.47;100.00
45763;BME280;37512;52.408;13.356;2023-01-05T13:33:17;100923.31;;;8.41;100.00
45763;BME280;37512;52.408;13.356;2023-01-05T13:54:50;100956.16;;;8.55;100.00
45763;BME280;37512;52.408;13.356;2023-01-05T14:03:39;100957.66;;;8.40;100.00
45763;BME280;37512;52.408;13.356;2023-01-05T14:07:41;100970.25;;;8.62;100.00
45763;BME280;37512;52.408;13.356;2023-01-05T14:20:45;100990.84;;;8.40;100.00
45763;BME280;37512;52.408;13.356;2023-01-05T14:24:49;101009.56;;;8.34;100.00
45763;BME280;37512;52.408;13.356;2023-01-05T14:28:51;101010.75;;;8.33;100.00
45763;BME280;37512;52.408;13.356;2023-01-05T14:32:53;101056.78;;;8.17;100.00
45763;BME280;37512;52.408;13.356;2023-01-05T14:40:56;101046.44;;;8.26;100.00
45763;BME280;37512;52.408;13.356;2023-01-05T14:44:59;101055.22;;;8.28;100.00
45763;BME280;37512;52.408;13.356;2023-01-05T14:49:08;101060.56;;;8.12;100.00
45763;BME280;37512;52.408;13.356;2023-01-05T14:57:49;101087.19;;;8.17;100.00
45763;BME280;37512;52.408;13.356;2023-01-05T15:02:07;101095.03;;;8.15;100.00
45763;BME280;37512;52.408;13.356;2023-01-05T15:19:40;101155.09;;;8.27;100.00
45763;BME280;37512;52.408;13.356;2023-01-05T15:28:28;101172.16;;;7.87;100.00
45763;BME280;37512;52.408;13.356;2023-01-05T15:32:34;101191.03;;;7.85;100.00
45763;BME280;37512;52.408;13.356;2023-01-05T15:36:53;101185.69;;;7.80;100.00
45763;BME280;37512;52.408;13.356;2023-01-05T15:41:05;101203.91;;;7.81;100.00
45763;BME280;37512;52.408;13.356;2023-01-05T15:45:17;101219.59;;;7.59;100.00
45763;BME280;37512;52.408;13.356;2023-01-05T15:49:22;101201.00;;;7.39;100.00
45763;BME280;37512;52.408;13.356;2023-01-05T15:53:28;101210.94;;;7.40;100.00
45763;BME280;37512;52.408;13.356;2023-01-05T15:57:30;101218.53;;;7.43;100.00
45763;BME280;37512;52.408;13.356;2023-01-05T16:01:36;101237.41;;;7.32;100.00
45763;BME280;37512;52.408;13.356;2023-01-05T16:05:38;101236.38;;;7.54;100.00
45763;BME280;37512;52.408;13.356;2023-01-05T16:09:39;101242.41;;;7.47;100.00
45763;BME280;37512;52.408;13.356;2023-01-05T16:13:52;101242.88;;;7.49;100.00
45763;BME280;37512;52.408;13.356;2023-01-05T16:17:56;101252.63;;;7.56;100.00
45763;BME280;37512;52.408;13.356;2023-01-05T16:22:18;101263.41;;;7.40;100.00
45763;BME280;37512;52.408;13.356;2023-01-05T16:26:22;101275.91;;;7.37;100.00
45763;BME280;37512;52.408;13.356;2023-01-05T16:30:33;101277.84;;;7.37;100.00
45763;BME280;37512;52.408;13.356;2023-01-05T16:34:35;101280.31;;;7.29;100.00
45763;BME280;37512;52.408;13.356;2023-01-05T16:38:38;101287.00;;;7.20;100.00
45763;BME280;37512;52.408;13.356;2023-01-05T16:42:45;101290.75;;;7.15;100.00
45763;BME280;37512;52.408;13.356;2023-01-05T16:47:03;101296.75;;;7.26;100.00
45763;BME280;37512;52.408;13.356;2023-01-05T16:51:14;101293.31;;;7.20;100.00
45763;BME280;37512;52.408;13.356;2023-01-05T17:03:34;101306.34;;;7.11;100.00
45763;BME280;37512;52.408;13.356;2023-01-05T17:07:38;101308.78;;;7.04;100.00
45763;BME280;37512;52.408;13.356;2023-01-05T17:11:40;101312.03;;;7.15;100.00
45763;BME280;37512;52.408;13.356;2023-01-05T17:15:45;101312.69;;;7.03;100.00
45763;BME280;37512;52.408;13.356;2023-01-05T17:19:46;101329.56;;;6.93;100.00
45763;BME280;37512;52.408;13.356;2023-01-05T17:23:53;101329.25;;;6.94;100.00
45763;BME280;37512;52.408;13.356;2023-01-05T17:27:55;101339.16;;;7.04;100.00
45763;BME280;37512;52.408;13.356;2023-01-05T17:32:00;101354.88;;;6.77;100.00
45763;BME280;37512;52.408;13.356;2023-01-05T17:36:02;101346.78;;;6.98;100.00
45763;BME280;37512;52.408;13.356;2023-01-05T17:40:14;101357.34;;;6.87;100.00
45763;BME280;37512;52.408;13.356;2023-01-05T17:44:17;101358.78;;;7.02;100.00
45763;BME280;37512;52.408;13.356;2023-01-05T17:48:19;101356.38;;;7.09;100.00
45763;BME280;37512;52.408;13.356;2023-01-05T17:52:21;101363.00;;;6.91;100.00
45763;BME280;37512;52.408;13.356;2023-01-05T17:56:22;101369.03;;;6.84;100.00
45763;BME280;37512;52.408;13.356;2023-01-05T18:00:26;101380.38;;;6.74;100.00
45763;BME280;37512;52.408;13.356;2023-01-05T18:04:28;101381.38;;;6.87;100.00
45763;BME280;37512;52.408;13.356;2023-01-05T18:08:35;101393.66;;;6.55;100.00
45763;BME280;37512;52.408;13.356;2023-01-05T18:12:37;101396.88;;;6.57;100.00
45763;BME280;37512;52.408;13.356;2023-01-05T18:16:38;101398.06;;;6.64;100.00
45763;BME280;37512;52.408;13.356;2023-01-05T18:20:41;101402.28;;;6.70;100.00
45763;BME280;37512;52.408;13.356;2023-01-05T18:24:43;101407.66;;;6.93;100.00
45763;BME280;37512;52.408;13.356;2023-01-05T18:28:45;101412.53;;;6.87;100.00
45763;BME280;37512;52.408;13.356;2023-01-05T18:32:46;101418.94;;;6.57;100.00
45763;BME280;37512;52.408;13.356;2023-01-05T18:36:48;101408.41;;;6.50;100.00
45763;BME280;37512;52.408;13.356;2023-01-05T18:41:02;101419.19;;;6.95;100.00
45763;BME280;37512;52.408;13.356;2023-01-05T18:45:05;101433.25;;;6.67;100.00
45763;BME280;37512;52.408;13.356;2023-01-05T18:49:25;101425.69;;;6.99;100.00
45763;BME280;37512;52.408;13.356;2023-01-05T18:53:27;101437.06;;;6.89;100.00
45763;BME280;37512;52.408;13.356;2023-01-05T18:57:29;101442.84;;;6.79;100.00
45763;BME280;37512;52.408;13.356;2023-01-05T19:01:31;101445.44;;;6.66;100.00
45763;BME280;37512;52.408;13.356;2023-01-05T19:05:36;101441.41;;;6.90;100.00
45763;BME280;37512;52.408;13.356;2023-01-05T19:09:39;101448.72;;;6.86;100.00
45763;BME280;37512;52.408;13.356;2023-01-05T19:13:41;101455.91;;;6.96;100.00
45763;BME280;37512;52.408;13.356;2023-01-05T19:17:47;101471.97;;;7.11;100.00
45763;BME280;37512;52.408;13.356;2023-01-05T19:21:50;101482.06;;;7.24;100.00
45763;BME280;37512;52.408;13.356;2023-01-05T19:26:02;101472.59;;;6.99;100.00
45763;BME280;37512;52.408;13.356;2023-01-05T19:30:04;101469.22;;;7.11;100.00
45763;BME280;37512;52.408;13.356;2023-01-05T19:34:06;101474.53;;;6.90;100.00
45763;BME280;37512;52.408;13.356;2023-01-05T19:38:07;101477.09;;;6.69;100.00
45763;BME280;37512;52.408;13.356;2023-01-05T19:42:11;101487.03;;;6.87;100.00
45763;BME280;37512;52.408;13.356;2023-01-05T19:46:13;101485.31;;;6.60;100.00
45763;BME280;37512;52.408;13.356;2023-01-05T19:50:15;101479.03;;;6.77;100.00
45763;BME280;37512;52.408;13.356;2023-01-05T19:54:18;101486.47;;;6.68;100.00
45763;BME280;37512;52.408;13.356;2023-01-05T19:58:20;101487.00;;;6.79;100.00
45763;BME280;37512;52.408;13.356;2023-01-05T20:02:23;101493.56;;;6.52;100.00
45763;BME280;37512;52.408;13.356;2023-01-05T20:06:31;101513.47;;;6.40;100.00
45763;BME280;37512;52.408;13.356;2023-01-05T20:10:35;101516.28;;;6.48;100.00
45763;BME280;37512;52.408;13.356;2023-01-05T20:14:37;101524.56;;;6.48;100.00
45763;BME280;37512;52.408;13.356;2023-01-05T20:18:38;101532.50;;;6.50;100.00
45763;BME280;37512;52.408;13.356;2023-01-05T20:22:40;101528.66;;;6.60;100.00
45763;BME280;37512;52.408;13.356;2023-01-05T20:26:43;101528.06;;;6.40;100.00
45763;BME280;37512;52.408;13.356;2023-01-05T20:30:46;101542.84;;;6.44;100.00
45763;BME280;37512;52.408;13.356;2023-01-05T20:34:53;101545.28;;;6.15;100.00
45763;BME280;37512;52.408;13.356;2023-01-05T20:38:56;101549.00;;;6.41;100.00
45763;BME280;37512;52.408;13.356;2023-01-05T20:42:57;101562.16;;;6.44;100.00
45763;BME280;37512;52.408;13.356;2023-01-05T20:46:59;101558.75;;;6.47;100.00
45763;BME280;37512;52.408;13.356;2023-01-05T20:51:05;101568.22;;;6.55;100.00
45763;BME280;37512;52.408;13.356;2023-01-05T20:55:06;101567.88;;;6.48;100.00
45763;BME280;37512;52.408;13.356;2023-01-05T20:59:14;101576.50;;;6.55;100.00
45763;BME280;37512;52.408;13.356;2023-01-05T21:03:15;101585.50;;;6.16;100.00
45763;BME280;37512;52.408;13.356;2023-01-05T21:07:17;101585.31;;;6.35;100.00
45763;BME280;37512;52.408;13.356;2023-01-05T21:11:20;101589.16;;;6.02;100.00
45763;BME280;37512;52.408;13.356;2023-01-05T21:15:26;101592.50;;;6.22;100.00
45763;BME280;37512;52.408;13.356;2023-01-05T21:19:29;101602.94;;;6.02;100.00
45763;BME280;37512;52.408;13.356;2023-01-05T21:23:30;101597.59;;;6.06;100.00
45763;BME280;37512;52.408;13.356;2023-01-05T21:27:33;101612.81;;;5.53;100.00
45763;BME280;37512;52.408;13.356;2023-01-05T21:31:35;101615.38;;;5.63;100.00
45763;BME280;37512;52.408;13.356;2023-01-05T21:35:37;101602.44;;;5.50;100.00
45763;BME280;37512;52.408;13.356;2023-01-05T21:39:39;101612.91;;;5.62;100.00
45763;BME280;37512;52.408;13.356;2023-01-05T21:43:40;101609.78;;;5.55;100.00
45763;BME280;37512;52.408;13.356;2023-01-05T21:47:43;101615.50;;;5.03;100.00
45763;BME280;37512;52.408;13.356;2023-01-05T21:51:45;101613.78;;;5.21;100.00
45763;BME280;37512;52.408;13.356;2023-01-05T21:56:12;101610.41;;;5.24;100.00
45763;BME280;37512;52.408;13.356;2023-01-05T22:00:25;101619.19;;;4.98;100.00
45763;BME280;37512;52.408;13.356;2023-01-05T22:04:27;101615.72;;;5.20;100.00
45763;BME280;37512;52.408;13.356;2023-01-05T22:08:29;101618.16;;;5.08;100.00
45763;BME280;37512;52.408;13.356;2023-01-05T22:12:30;101613.38;;;5.14;100.00
45763;BME280;37512;52.408;13.356;2023-01-05T22:16:32;101611.44;;;5.14;100.00
45763;BME280;37512;52.408;13.356;2023-01-05T22:20:34;101614.69;;;5.16;100.00
45763;BME280;37512;52.408;13.356;2023-01-05T22:24:35;101619.69;;;5.14;100.00
45763;BME280;37512;52.408;13.356;2023-01-05T22:28:41;101624.16;;;5.38;100.00
45763;BME280;37512;52.408;13.356;2023-01-05T22:32:43;101626.81;;;5.43;100.00
45763;BME280;37512;52.408;13.356;2023-01-05T22:36:45;101628.75;;;5.15;100.00
45763;BME280;37512;52.408;13.356;2023-01-05T22:40:55;101640.78;;;4.91;100.00
45763;BME280;37512;52.408;13.356;2023-01-05T22:44:58;101648.28;;;4.86;100.00
45763;BME280;37512;52.408;13.356;2023-01-05T22:48:59;101656.13;;;4.78;100.00
45763;BME280;37512;52.408;13.356;2023-01-05T22:53:01;101651.22;;;4.61;100.00
45763;BME280;37512;52.408;13.356;2023-01-05T22:57:02;101640.09;;;4.53;100.00
45763;BME280;37512;52.408;13.356;2023-01-05T23:01:24;101641.81;;;4.49;100.00
45763;BME280;37512;52.408;13.356;2023-01-05T23:05:26;101632.66;;;4.21;100.00
45763;BME280;37512;52.408;13.356;2023-01-05T23:09:27;101633.78;;;4.01;100.00
45763;BME280;37512;52.408;13.356;2023-01-05T23:13:29;101637.53;;;3.91;100.00
45763;BME280;37512;52.408;13.356;2023-01-05T23:17:30;101639.13;;;3.92;100.00
45763;BME280;37512;52.408;13.356;2023-01-05T23:21:34;101649.59;;;3.90;100.00
45763;BME280;37512;52.408;13.356;2023-01-05T23:25:35;101657.16;;;3.60;100.00
45763;BME280;37512;52.408;13.356;2023-01-05T23:29:37;101652.03;;;3.10;100.00
45763;BME280;37512;52.408;13.356;2023-01-05T23:33:39;101654.91;;;3.43;100.00
45763;BME280;37512;52.408;13.356;2023-01-05T23:37:41;101645.97;;;3.56;100.00
45763;BME280;37512;52.408;13.356;2023-01-05T23:41:42;101644.38;;;3.50;100.00